Charleston AFB, South Carolina
Current Conditions -  °F | °C
As of 6:56 PM on Monday 20 Oct 2014 (Local Time) from KCHS Reporting Station
Scattered Clouds Scattered Clouds  
Wind Chill: 68°   Ceiling: Unl
Heat Index: 68°   Visibility: 10mi
Dew Point: 58°   Wind: 7mph
Humidity: 70%   Direction: 190°S
Pressure: 30"   Gusts: NA
Location:  32.89°N, 80.07°W
Report Text: KCHS 202256Z 19006KT 10SM FEW045 SCT250 20/14 A3000 RMK AO2 SLP157 T02000144
Loading
Personal Weather Stations






























Interactive Weather Map
Tropical Storm Tracking
New forecast layout! Learn more

10-Day Weather Forecast

Advertisements
Track Severe Weather on mobile